Time;durP1;ratioP1;P1;durP2;ratioP2;P2;SDS_P1;SDS_P2;PMS_P1;PMS_P2;Temp;Humidity;BMP_temperature;BMP_pressure;BME280_temperature;BME280_humidity;BME280_pressure;Samples;Min_cycle;Max_cycle;Signal;HPM_P1;HPM_P2
2023/12/16 00:01:21;;;;;;;;;28.50;24.50;;;;;9.79;69.29;103475.28;4994548;28;46723;-89
2023/12/16 00:03:46;;;;;;;;;28.00;26.75;;;;;9.79;69.25;103471.72;4979485;27;44800;-87
2023/12/16 00:06:12;;;;;;;;;32.75;25.25;;;;;9.85;69.27;103477.88;4978783;28;45382;-88
2023/12/16 00:08:37;;;;;;;;;24.50;24.50;;;;;9.75;69.46;103460.22;4978063;28;45495;-86
2023/12/16 00:11:03;;;;;;;;;24.25;21.25;;;;;9.88;69.38;103487.59;4978227;28;46413;-87
2023/12/16 00:13:28;;;;;;;;;20.50;20.50;;;;;9.92;68.77;103494.69;4980416;28;45594;-89
2023/12/16 00:15:54;;;;;;;;;27.75;24.75;;;;;9.69;67.88;103444.31;4978153;28;45309;-90
2023/12/16 00:18:19;;;;;;;;;33.50;26.75;;;;;9.86;68.68;103461.03;4994978;28;45350;-90
2023/12/16 00:20:45;;;;;;;;;33.50;25.75;;;;;10.00;67.29;103485.72;4981688;28;45523;-88
2023/12/16 00:23:10;;;;;;;;;30.50;21.00;;;;;9.82;67.91;103455.75;4993433;28;45185;-90
2023/12/16 00:25:36;;;;;;;;;25.75;21.00;;;;;9.85;66.71;103467.25;5014971;27;44705;-87
2023/12/16 00:28:01;;;;;;;;;24.75;21.50;;;;;9.70;67.05;103430.16;5024142;27;44994;-89
2023/12/16 00:30:27;;;;;;;;;22.50;22.00;;;;;9.77;67.34;103444.28;5015809;27;48285;-87
2023/12/16 00:32:52;;;;;;;;;21.00;19.25;;;;;9.81;66.15;103454.88;4997317;28;45250;-89
2023/12/16 00:35:18;;;;;;;;;21.25;20.75;;;;;9.68;66.42;103434.59;4993699;28;45394;-89
2023/12/16 00:37:43;;;;;;;;;24.25;20.25;;;;;9.58;66.29;103424.91;4981655;28;45227;-89
2023/12/16 00:40:09;;;;;;;;;17.25;17.25;;;;;9.60;65.38;103428.44;4978610;28;45370;-90
2023/12/16 00:42:34;;;;;;;;;21.25;15.50;;;;;9.73;66.21;103448.72;4975292;28;45515;-88
2023/12/16 00:44:59;;;;;;;;;20.50;15.50;;;;;9.89;64.95;103474.28;4976433;28;45525;-88
2023/12/16 00:47:25;;;;;;;;;19.50;15.75;;;;;9.90;65.16;103481.41;4977150;28;45310;-88
2023/12/16 00:49:51;;;;;;;;;16.00;14.25;;;;;9.55;64.75;103425.81;4983716;28;46883;-88
2023/12/16 00:52:16;;;;;;;;;18.00;17.50;;;;;9.76;64.53;103456.66;4981662;28;45338;-87
2023/12/16 00:54:42;;;;;;;;;19.50;16.25;;;;;9.86;64.68;103487.59;4980799;28;45381;-88
2023/12/16 00:57:07;;;;;;;;;20.25;18.75;;;;;9.65;65.21;103458.53;4981195;28;45394;-88
2023/12/16 00:59:32;;;;;;;;;16.50;16.50;;;;;9.61;64.52;103452.34;4980671;28;46237;-87
2023/12/16 01:01:59;;;;;;;;;18.50;17.50;;;;;9.51;64.58;103433.84;4979974;28;45444;-89
2023/12/16 01:04:25;;;;;;;;;21.25;19.75;;;;;9.49;65.20;103431.16;4978771;28;46623;-87
2023/12/16 01:06:50;;;;;;;;;17.25;12.75;;;;;9.68;64.04;103474.44;4979676;28;45411;-87
2023/12/16 01:09:17;;;;;;;;;17.50;14.00;;;;;9.47;63.58;103448.88;4996973;27;48136;-88
2023/12/16 01:11:42;;;;;;;;;19.25;15.75;;;;;9.59;64.35;103472.72;4982548;27;45630;-87
2023/12/16 01:14:08;;;;;;;;;69.00;51.75;;;;;9.37;65.16;103437.44;4984015;27;45587;-88
2023/12/16 01:16:34;;;;;;;;;20.00;16.00;;;;;9.33;65.03;103435.69;4985851;28;45295;-88
2023/12/16 01:18:59;;;;;;;;;19.00;14.50;;;;;9.32;66.55;103439.22;4979384;28;45488;-89
2023/12/16 01:21:25;;;;;;;;;20.75;20.75;;;;;9.28;65.72;103431.31;4979859;28;45516;-88
2023/12/16 01:23:51;;;;;;;;;18.50;18.50;;;;;9.36;66.67;103454.25;4980130;28;45358;-87
2023/12/16 01:26:16;;;;;;;;;20.25;16.75;;;;;9.43;66.53;103460.44;4979040;28;45318;-88
2023/12/16 01:28:42;;;;;;;;;26.50;20.50;;;;;9.24;66.99;103433.06;4978555;28;46003;-88
2023/12/16 01:31:08;;;;;;;;;18.75;18.75;;;;;9.29;66.29;103444.56;4979477;28;46054;-89
2023/12/16 01:33:33;;;;;;;;;15.75;14.50;;;;;9.25;65.71;103453.44;4994622;27;45329;-88
2023/12/16 01:35:59;;;;;;;;;24.75;17.25;;;;;9.31;66.73;103472.00;4978601;28;45640;-87
2023/12/16 01:38:24;;;;;;;;;17.50;16.50;;;;;9.30;66.03;103474.66;4982246;28;46403;-88
2023/12/16 01:40:49;;;;;;;;;20.50;16.25;;;;;9.23;66.96;103471.13;4997853;28;45314;-88
2023/12/16 01:43:15;;;;;;;;;23.50;18.75;;;;;9.25;66.24;103476.47;5011396;28;45307;-88
2023/12/16 01:45:40;;;;;;;;;19.25;16.50;;;;;9.09;66.79;103439.34;4998785;27;45436;-89
2023/12/16 01:48:08;;;;;;;;;19.25;17.50;;;;;9.26;66.96;103464.97;4995865;27;48218;-87
2023/12/16 01:50:34;;;;;;;;;22.50;17.25;;;;;9.40;66.16;103479.94;4978303;28;45268;-87
2023/12/16 01:53:01;;;;;;;;;16.50;13.50;;;;;9.18;66.51;103449.03;4993992;28;45628;-87
2023/12/16 01:55:27;;;;;;;;;18.00;16.00;;;;;9.37;66.23;103484.34;4988450;28;45591;-88
2023/12/16 01:57:55;;;;;;;;;21.75;16.00;;;;;9.23;66.24;103465.81;4980365;28;46371;-88
2023/12/16 02:00:21;;;;;;;;;19.75;18.25;;;;;9.37;65.70;103492.31;4995470;27;45662;-89
2023/12/16 02:02:47;;;;;;;;;21.50;18.00;;;;;9.35;66.43;103488.78;4978227;28;45284;-88
2023/12/16 02:05:13;;;;;;;;;18.75;16.25;;;;;9.32;66.59;103479.06;4996191;28;45163;-88
2023/12/16 02:07:38;;;;;;;;;19.25;13.50;;;;;9.41;65.34;103500.28;5001159;28;46265;-88
2023/12/16 02:10:04;;;;;;;;;14.25;14.25;;;;;9.35;65.10;103502.97;4998530;28;45431;-89
2023/12/16 02:12:33;;;;;;;;;15.50;12.75;;;;;9.26;64.95;103488.84;4997700;27;45272;-88
2023/12/16 02:14:59;;;;;;;;;12.00;10.25;;;;;9.08;65.08;103481.84;4980260;28;45480;-89
2023/12/16 02:17:24;;;;;;;;;18.25;14.50;;;;;9.11;65.23;103484.47;4976543;28;46028;-88
2023/12/16 02:19:53;;;;;;;;;10.50;10.50;;;;;8.95;65.62;103464.19;4982313;28;45463;-88
2023/12/16 02:22:18;;;;;;;;;16.75;13.75;;;;;9.12;65.91;103488.91;4982303;28;45346;-89
2023/12/16 02:24:45;;;;;;;;;13.75;10.50;;;;;8.85;65.86;103434.13;4985264;28;45370;-87
2023/12/16 02:27:10;;;;;;;;;11.00;9.75;;;;;9.12;65.18;103478.28;4986897;28;45523;-87
2023/12/16 02:29:35;;;;;;;;;17.25;15.00;;;;;9.06;65.05;103478.31;4977966;28;45310;-88
2023/12/16 02:32:01;;;;;;;;;19.50;12.50;;;;;9.01;64.78;103464.19;4990715;28;45564;-88
2023/12/16 02:34:27;;;;;;;;;9.25;9.25;;;;;9.00;64.44;103467.72;4989609;27;45503;-88
2023/12/16 02:36:53;;;;;;;;;13.75;12.00;;;;;9.12;64.50;103491.56;4995833;28;48128;-88
2023/12/16 02:39:18;;;;;;;;;14.00;12.50;;;;;9.13;64.58;103496.00;4997169;27;45342;-88
2023/12/16 02:41:43;;;;;;;;;15.00;15.00;;;;;9.02;65.51;103471.25;4981928;28;45324;-87
2023/12/16 02:44:09;;;;;;;;;24.50;21.75;;;;;9.07;65.36;103485.38;4978247;28;45668;-88
2023/12/16 02:46:34;;;;;;;;;28.25;25.75;;;;;9.10;65.38;103495.97;4977275;28;46263;-89
2023/12/16 02:48:59;;;;;;;;;23.75;22.00;;;;;9.06;64.98;103505.72;4977036;28;45350;-86
2023/12/16 02:51:25;;;;;;;;;28.50;26.75;;;;;9.03;65.27;103508.41;4977414;28;45315;-87
2023/12/16 02:53:51;;;;;;;;;12.00;4.75;;;;;9.01;65.62;103509.31;4977131;28;45271;-88
2023/12/16 02:56:17;;;;;;;;;27.50;26.25;;;;;8.71;65.77;103465.13;4990687;28;48118;-89
2023/12/16 02:58:42;;;;;;;;;33.75;28.75;;;;;8.81;66.05;103478.38;4978601;28;45254;-87
2023/12/16 03:01:08;;;;;;;;;33.50;29.75;;;;;8.79;65.43;103484.59;4993519;28;45812;-88
2023/12/16 03:03:34;;;;;;;;;32.75;30.50;;;;;8.91;66.38;103510.22;4977611;28;45604;-88
2023/12/16 03:06:06;;;;;;;;;35.00;27.75;;;;;8.96;65.54;103524.34;4979695;27;46394;-88
2023/12/16 03:08:32;;;;;;;;;24.75;23.50;;;;;8.77;66.04;103497.84;4998102;27;45222;-87
2023/12/16 03:11:00;;;;;;;;;22.00;16.25;;;;;8.76;66.01;103490.78;4993075;28;45771;-87
2023/12/16 03:13:25;;;;;;;;;22.75;19.50;;;;;8.81;65.88;103494.31;4996026;28;45485;-88
2023/12/16 03:15:51;;;;;;;;;18.25;16.75;;;;;8.91;66.01;103499.59;5009044;28;46899;-89
2023/12/16 03:18:16;;;;;;;;;18.25;17.00;;;;;9.00;66.57;103494.25;4995893;28;45314;-89
2023/12/16 03:20:41;;;;;;;;;18.75;17.00;;;;;9.14;65.60;103508.38;5012723;27;45345;-87
2023/12/16 03:23:07;;;;;;;;;18.75;17.00;;;;;9.10;65.25;103501.28;4997896;28;45251;-88
2023/12/16 03:25:32;;;;;;;;;15.00;13.50;;;;;9.28;65.77;103538.41;4995774;27;45307;-88
2023/12/16 03:27:57;;;;;;;;;17.50;13.75;;;;;9.13;65.99;103507.50;4996985;28;45355;-89
2023/12/16 03:30:23;;;;;;;;;14.25;12.50;;;;;9.00;65.71;103483.66;4991018;27;47733;-87
2023/12/16 03:32:48;;;;;;;;;20.50;15.25;;;;;9.14;65.76;103505.72;4977885;28;45410;-89
2023/12/16 03:35:13;;;;;;;;;19.50;15.50;;;;;9.36;65.93;103525.97;4978497;28;46526;-88
2023/12/16 03:37:39;;;;;;;;;14.50;14.00;;;;;9.32;65.51;103496.78;4980676;28;45337;-88
2023/12/16 03:40:05;;;;;;;;;21.25;16.00;;;;;9.58;64.27;103525.88;5000094;28;45366;-88
2023/12/16 03:42:31;;;;;;;;;18.00;13.75;;;;;9.59;64.59;103511.69;5002089;28;45218;-88
2023/12/16 03:44:56;;;;;;;;;20.25;15.25;;;;;9.70;64.98;103505.44;4993153;28;45404;-86
2023/12/16 03:47:21;;;;;;;;;16.25;14.00;;;;;9.52;64.70;103459.50;4977459;28;45201;-88
2023/12/16 03:49:47;;;;;;;;;15.00;15.00;;;;;9.67;64.36;103472.69;4977423;28;45227;-89
2023/12/16 03:52:12;;;;;;;;;16.00;14.50;;;;;9.78;64.05;103497.44;4977369;28;45362;-88
2023/12/16 03:54:38;;;;;;;;;16.25;15.00;;;;;9.93;64.71;103509.72;4978567;28;47724;-88
2023/12/16 03:57:05;;;;;;;;;14.00;11.75;;;;;9.88;63.68;103483.16;4996555;27;45270;-87
2023/12/16 03:59:31;;;;;;;;;12.75;12.75;;;;;10.02;62.70;103501.66;4997078;27;45470;-88
2023/12/16 04:01:56;;;;;;;;;14.25;12.75;;;;;9.94;62.16;103483.13;5011905;27;45743;-87
2023/12/16 04:04:21;;;;;;;;;11.75;11.75;;;;;9.88;62.03;103455.69;5009555;27;47580;-87
2023/12/16 04:06:47;;;;;;;;;14.00;14.00;;;;;9.91;62.99;103487.59;4981218;28;45368;-87
2023/12/16 04:09:12;;;;;;;;;17.50;15.50;;;;;9.77;63.05;103465.53;4997595;28;45547;-86
2023/12/16 04:11:46;;;;;;;;;10.75;10.75;;;;;9.91;62.44;103490.25;4998170;27;45671;-87
2023/12/16 04:14:11;;;;;;;;;10.00;10.00;;;;;9.85;61.74;103463.69;4997748;28;45346;-88
2023/12/16 04:16:37;;;;;;;;;14.00;10.50;;;;;9.97;61.38;103466.25;5011382;28;44684;-86
2023/12/16 04:19:02;;;;;;;;;13.00;11.50;;;;;10.16;60.70;103493.63;5013452;28;45329;-87
2023/12/16 04:21:28;;;;;;;;;13.00;13.00;;;;;10.22;61.51;103505.09;5011209;28;45307;-88
2023/12/16 04:23:53;;;;;;;;;6.50;6.25;;;;;10.10;61.51;103461.72;5014428;27;45467;-86
2023/12/16 04:26:18;;;;;;;;;10.75;9.00;;;;;10.27;61.38;103481.13;5022050;27;44683;-86
2023/12/16 04:28:44;;;;;;;;;14.75;10.25;;;;;10.19;60.51;103465.19;5020414;27;44740;-88
2023/12/16 04:31:13;;;;;;;;;9.00;9.00;;;;;10.14;60.20;103453.69;5008389;28;44879;-87
2023/12/16 04:33:39;;;;;;;;;9.00;8.25;;;;;10.40;60.23;103496.06;4999307;27;45224;-87
2023/12/16 04:36:05;;;;;;;;;10.50;8.00;;;;;10.17;59.89;103452.81;4987974;27;46737;-88
2023/12/16 04:38:30;;;;;;;;;8.75;8.75;;;;;10.15;60.51;103449.28;4979355;27;45380;-87
2023/12/16 04:40:56;;;;;;;;;8.50;5.50;;;;;10.41;60.05;103500.50;4979677;28;45293;-86
2023/12/16 04:43:21;;;;;;;;;7.33;5.00;;;;;10.12;59.71;103454.63;4979186;27;45400;-86
2023/12/16 04:45:46;;;;;;;;;9.25;9.25;;;;;10.19;59.79;103462.53;4990238;28;45283;-89
2023/12/16 04:48:12;;;;;;;;;9.75;9.00;;;;;10.49;59.09;103496.00;5015012;27;45641;-89
2023/12/16 04:50:37;;;;;;;;;10.25;7.50;;;;;10.27;59.60;103454.50;4999346;27;45313;-87
2023/12/16 04:53:02;;;;;;;;;9.00;7.50;;;;;10.29;59.95;103461.59;4998606;27;45406;-88
2023/12/16 04:55:28;;;;;;;;;9.50;8.00;;;;;10.24;59.36;103449.22;4989605;27;45435;-87
2023/12/16 04:57:54;;;;;;;;;8.67;8.67;;;;;10.31;59.62;103461.59;4980256;28;45224;-88
2023/12/16 05:00:19;;;;;;;;;12.00;9.00;;;;;10.40;58.47;103485.44;4979494;28;45303;-88
2023/12/16 05:02:45;;;;;;;;;8.00;5.00;;;;;10.40;59.85;103477.44;4978746;28;45440;-88
2023/12/16 05:05:10;;;;;;;;;8.00;6.67;;;;;10.20;60.20;103447.47;4981715;28;45563;-87
2023/12/16 05:07:36;;;;;;;;;11.75;9.00;;;;;10.44;60.17;103489.84;4997179;28;45401;-88
2023/12/16 05:10:02;;;;;;;;;11.00;8.00;;;;;10.25;59.55;103461.63;4995600;28;45180;-88
2023/12/16 05:12:27;;;;;;;;;10.25;10.25;;;;;10.26;59.76;103474.03;4977983;28;45426;-89
2023/12/16 05:14:52;;;;;;;;;13.00;8.75;;;;;10.22;59.45;103464.31;4983074;28;45268;-89
2023/12/16 05:17:19;;;;;;;;;9.75;9.50;;;;;10.40;60.26;103492.53;5002158;27;45266;-87
2023/12/16 05:19:45;;;;;;;;;10.50;9.50;;;;;10.38;60.47;103478.34;4985335;28;45248;-86
2023/12/16 05:22:10;;;;;;;;;9.50;9.00;;;;;10.31;60.14;103467.78;4987965;28;56242;-86
2023/12/16 05:24:35;;;;;;;;;10.75;8.25;;;;;10.42;60.25;103481.00;4994181;28;45537;-86
2023/12/16 05:27:01;;;;;;;;;14.75;9.25;;;;;10.45;59.65;103488.94;5014223;27;45476;-89
2023/12/16 05:29:26;;;;;;;;;13.50;9.75;;;;;10.45;60.01;103493.38;5001221;27;45460;-87
2023/12/16 05:31:52;;;;;;;;;11.25;6.75;;;;;10.30;59.99;103470.47;5001828;28;46870;-90
2023/12/16 05:34:17;;;;;;;;;7.00;7.00;;;;;10.43;59.97;103482.75;4995460;28;45427;-90
2023/12/16 05:36:42;;;;;;;;;9.75;9.00;;;;;10.36;59.90;103465.06;4981546;28;45414;-90
2023/12/16 05:39:09;;;;;;;;;12.25;9.00;;;;;10.43;59.72;103471.25;4980090;28;45521;-88
2023/12/16 05:41:35;;;;;;;;;8.25;8.25;;;;;10.31;60.15;103450.94;4978824;28;45306;-90
2023/12/16 05:44:00;;;;;;;;;10.50;10.25;;;;;10.32;60.15;103463.34;4978892;28;45612;-90
2023/12/16 05:46:26;;;;;;;;;11.75;10.25;;;;;10.15;60.64;103449.28;4979184;28;45558;-89
2023/12/16 05:48:51;;;;;;;;;8.50;5.00;;;;;10.13;60.45;103467.03;4980176;27;45267;-88
2023/12/16 05:51:16;;;;;;;;;11.50;9.00;;;;;10.15;61.29;103481.19;4978614;28;46101;-88
2023/12/16 05:53:42;;;;;;;;;10.25;9.00;;;;;10.21;61.68;103484.72;4978339;28;45231;-88
2023/12/16 05:56:09;;;;;;;;;10.50;8.75;;;;;10.25;61.45;103482.91;4987493;28;45495;-88
2023/12/16 05:58:34;;;;;;;;;8.50;8.25;;;;;10.06;60.95;103455.56;4993219;27;45283;-89
2023/12/16 06:01:00;;;;;;;;;7.50;7.50;;;;;10.19;61.07;103483.81;4981509;28;45613;-89
2023/12/16 06:03:26;;;;;;;;;10.25;8.25;;;;;10.17;60.54;103474.97;4987880;28;45274;-89
2023/12/16 06:05:51;;;;;;;;;7.75;7.75;;;;;10.17;60.12;103490.06;4998457;27;45318;-88
2023/12/16 06:08:16;;;;;;;;;8.75;8.00;;;;;10.03;60.05;103461.78;5013627;27;45327;-88
2023/12/16 06:10:41;;;;;;;;;10.50;4.50;;;;;10.11;59.32;103479.44;4998554;27;45406;-89
2023/12/16 06:13:07;;;;;;;;;8.00;5.00;;;;;10.19;59.63;103488.25;4980175;28;45377;-88
2023/12/16 06:15:33;;;;;;;;;8.00;7.25;;;;;10.19;59.85;103493.56;4998649;28;44667;-87
2023/12/16 06:18:02;;;;;;;;;8.00;7.25;;;;;10.04;60.07;103484.84;4998816;28;45395;-89
2023/12/16 06:20:28;;;;;;;;;8.25;7.00;;;;;9.77;61.36;103463.78;4997246;27;48209;-89
2023/12/16 06:22:53;;;;;;;;;10.50;8.25;;;;;9.85;62.48;103504.44;5012608;27;45260;-87
2023/12/16 06:25:18;;;;;;;;;7.25;7.25;;;;;9.41;63.83;103468.41;4999514;28;45505;-87
2023/12/16 06:27:44;;;;;;;;;8.50;8.50;;;;;9.39;63.20;103504.72;5000574;28;45199;-88
2023/12/16 06:30:11;;;;;;;;;9.25;9.25;;;;;9.18;64.35;103490.66;4998698;27;45945;-90
2023/12/16 06:32:36;;;;;;;;;10.25;9.25;;;;;9.22;64.47;103511.88;5019004;27;45795;-88
2023/12/16 06:35:01;;;;;;;;;12.25;9.00;;;;;9.01;65.19;103501.34;5007261;27;45821;-89
2023/12/16 06:37:27;;;;;;;;;10.25;9.00;;;;;9.02;64.92;103503.09;5000202;27;45582;-89
2023/12/16 06:39:52;;;;;;;;;11.25;10.25;;;;;8.69;66.47;103464.25;5013444;27;47092;-88
2023/12/16 06:42:18;;;;;;;;;13.75;13.50;;;;;8.94;67.23;103523.47;4995536;28;45349;-88
2023/12/16 06:44:43;;;;;;;;;11.25;11.25;;;;;8.93;67.48;103529.66;5012747;27;45659;-88
2023/12/16 06:47:08;;;;;;;;;14.50;13.00;;;;;8.71;67.34;103503.16;4997524;27;45403;-89
2023/12/16 06:49:34;;;;;;;;;15.25;11.00;;;;;8.68;67.12;103503.16;4997407;28;45384;-89
2023/12/16 06:51:59;;;;;;;;;12.75;12.25;;;;;8.71;66.73;103519.09;4988665;28;45313;-88
2023/12/16 06:54:25;;;;;;;;;12.25;9.50;;;;;8.55;67.23;103512.91;4980659;28;45315;-89
2023/12/16 06:56:50;;;;;;;;;16.50;13.75;;;;;8.57;67.33;103526.19;4983687;28;45321;-88
2023/12/16 06:59:17;;;;;;;;;15.00;13.00;;;;;8.39;67.74;103510.28;4981493;28;46071;-88
2023/12/16 07:01:42;;;;;;;;;12.75;12.75;;;;;8.38;67.29;103509.41;4981935;27;45230;-88
2023/12/16 07:04:08;;;;;;;;;12.50;12.50;;;;;8.26;67.83;103510.25;4985172;28;45516;-88
2023/12/16 07:06:33;;;;;;;;;17.25;13.00;;;;;8.39;68.24;103543.00;4979013;28;45291;-88
2023/12/16 07:08:58;;;;;;;;;15.25;13.25;;;;;8.31;68.63;103533.22;4980075;27;46839;-88
2023/12/16 07:11:24;;;;;;;;;16.75;14.00;;;;;8.33;68.12;103536.75;4979938;28;45377;-89
2023/12/16 07:13:49;;;;;;;;;13.00;12.75;;;;;8.15;67.49;103506.72;4978696;28;45422;-87
2023/12/16 07:16:16;;;;;;;;;12.50;12.50;;;;;8.27;67.55;103527.94;4978650;28;45622;-88
2023/12/16 07:18:42;;;;;;;;;11.50;10.75;;;;;8.14;67.77;103502.28;4981051;28;45433;-88
2023/12/16 07:21:08;;;;;;;;;11.50;11.25;;;;;8.44;67.41;103535.91;4980963;28;45709;-88
2023/12/16 07:23:36;;;;;;;;;19.00;13.50;;;;;8.35;67.02;103527.09;4998514;28;45373;-88
2023/12/16 07:26:02;;;;;;;;;14.25;13.00;;;;;8.25;67.16;103489.94;4997558;28;45211;-87
2023/12/16 07:28:28;;;;;;;;;16.75;12.25;;;;;8.56;66.77;103548.28;4996258;28;46251;-89
2023/12/16 07:30:53;;;;;;;;;14.00;12.75;;;;;8.49;67.03;103522.66;4999068;27;45220;-88
2023/12/16 07:33:19;;;;;;;;;13.25;12.00;;;;;8.65;65.76;103547.41;4996794;28;45362;-88
2023/12/16 07:35:44;;;;;;;;;17.00;16.50;;;;;8.49;65.89;103522.66;4999745;27;45538;-86
2023/12/16 07:38:11;;;;;;;;;12.25;11.75;;;;;8.57;66.55;103528.81;4990159;27;45447;-92
2023/12/16 07:40:37;;;;;;;;;14.00;14.00;;;;;8.47;65.91;103511.19;5004529;28;45359;-87
2023/12/16 07:43:02;;;;;;;;;15.75;14.00;;;;;8.47;66.57;103514.72;5030529;28;45338;-92
2023/12/16 07:45:28;;;;;;;;;14.50;12.50;;;;;8.73;66.45;103574.81;5020592;28;45391;-90
2023/12/16 07:47:53;;;;;;;;;20.00;13.25;;;;;8.64;66.37;103562.44;5013455;27;45736;-91
2023/12/16 07:50:20;;;;;;;;;16.00;14.00;;;;;8.68;66.25;103577.47;4985089;27;45762;-91
2023/12/16 07:53:07;;;;;;;;;13.75;13.75;;;;;8.60;66.16;103568.66;4999425;28;45459;-90
2023/12/16 07:55:32;;;;;;;;;21.25;14.50;;;;;8.48;66.61;103547.44;5110944;27;45365;-90
2023/12/16 07:57:58;;;;;;;;;20.50;16.25;;;;;8.26;66.93;103514.69;5138575;27;47263;-88
2023/12/16 08:00:23;;;;;;;;;10.25;8.25;;;;;8.46;66.44;103549.16;5112389;27;45308;-90
2023/12/16 08:02:48;;;;;;;;;18.75;18.00;;;;;8.41;66.32;103538.56;5130029;27;45420;-88
2023/12/16 08:05:14;;;;;;;;;17.25;14.00;;;;;8.67;66.95;103583.66;5134289;27;45647;-87
2023/12/16 08:07:41;;;;;;;;;16.00;16.00;;;;;8.60;67.08;103568.66;5138987;27;45517;-89
2023/12/16 08:10:06;;;;;;;;;20.25;18.50;;;;;8.44;66.75;103545.63;5114080;27;45474;-86
2023/12/16 08:12:32;;;;;;;;;18.00;16.75;;;;;8.69;67.66;103587.19;5119136;27;44808;-86
2023/12/16 08:14:57;;;;;;;;;22.50;18.00;;;;;8.52;67.36;103554.47;5120352;27;45812;-86
2023/12/16 08:17:23;;;;;;;;;17.50;15.00;;;;;8.76;66.99;103596.03;5136574;27;46179;-85
2023/12/16 08:19:48;;;;;;;;;18.00;15.50;;;;;8.54;67.13;103556.25;5150966;27;45334;-89
2023/12/16 08:22:14;;;;;;;;;23.50;19.50;;;;;8.67;67.28;103575.69;5123507;27;45533;-90
2023/12/16 08:24:42;;;;;;;;;19.25;16.00;;;;;8.57;67.55;103542.09;5127543;27;45642;-89
2023/12/16 08:27:07;;;;;;;;;20.75;18.00;;;;;8.72;67.10;103568.59;5036640;27;45594;-88
2023/12/16 08:29:33;;;;;;;;;18.25;18.00;;;;;8.83;67.57;103582.75;5011964;28;45368;-90
2023/12/16 08:31:58;;;;;;;;;19.50;15.50;;;;;9.03;66.93;103611.06;4994263;28;45349;-88
2023/12/16 08:34:24;;;;;;;;;24.50;20.75;;;;;8.78;67.56;103560.66;4985643;28;45386;-87
2023/12/16 08:36:49;;;;;;;;;19.25;17.75;;;;;8.88;66.93;103568.63;5016976;28;45274;-89
2023/12/16 08:39:15;;;;;;;;;21.00;18.00;;;;;9.14;67.30;103614.59;5007695;28;45375;-88
2023/12/16 08:41:41;;;;;;;;;23.25;20.25;;;;;9.10;66.70;103602.19;4995212;28;45397;-92
2023/12/16 08:44:09;;;;;;;;;27.00;21.00;;;;;9.00;66.92;103573.91;5023842;27;45712;-86
2023/12/16 08:46:41;;;;;;;;;28.50;25.25;;;;;9.09;67.23;103579.16;5018432;27;45610;-91
2023/12/16 08:49:07;;;;;;;;;28.00;27.25;;;;;9.09;67.17;103577.41;5024735;27;45549;-83
2023/12/16 08:51:32;;;;;;;;;21.75;21.75;;;;;9.23;66.57;103592.41;5014329;27;45589;-88
2023/12/16 08:53:58;;;;;;;;;21.00;19.50;;;;;9.25;65.99;103596.84;4984809;28;45509;-92
2023/12/16 08:56:23;;;;;;;;;24.50;21.75;;;;;9.30;65.56;103600.38;4998815;28;46066;-91
2023/12/16 08:58:48;;;;;;;;;26.50;23.00;;;;;9.56;65.64;103639.25;5027592;27;45399;-90
2023/12/16 09:01:14;;;;;;;;;27.25;22.75;;;;;9.55;65.65;103622.44;4999283;28;45466;-86
2023/12/16 09:03:43;;;;;;;;;21.50;21.50;;;;;9.65;65.90;103636.56;4990275;28;47333;-83
2023/12/16 09:06:09;;;;;;;;;29.75;23.00;;;;;9.76;66.42;103634.72;4994386;27;45486;-85
2023/12/16 09:08:34;;;;;;;;;28.50;24.25;;;;;9.88;64.74;103636.47;4994313;28;45453;-84
2023/12/16 09:11:00;;;;;;;;;32.00;28.75;;;;;9.90;64.92;103622.28;4993034;28;45377;-86
2023/12/16 09:13:25;;;;;;;;;26.50;25.25;;;;;9.98;64.97;103625.78;5021603;27;45655;-83
2023/12/16 09:15:51;;;;;;;;;30.00;28.25;;;;;10.00;64.46;103615.13;4993234;28;45401;-83
2023/12/16 09:18:17;;;;;;;;;30.25;23.50;;;;;10.08;64.54;103618.63;5025770;27;45595;-84
2023/12/16 09:20:42;;;;;;;;;32.75;28.75;;;;;10.14;64.31;103625.69;5072373;27;45486;-84
2023/12/16 09:23:08;;;;;;;;;33.00;31.00;;;;;10.09;64.64;103598.25;5004961;28;56892;-82
2023/12/16 09:25:34;;;;;;;;;32.25;28.00;;;;;10.13;64.42;103615.94;5031736;27;46115;-86
2023/12/16 09:27:59;;;;;;;;;34.25;26.00;;;;;10.11;64.79;103612.41;4987680;28;45443;-84
2023/12/16 09:30:25;;;;;;;;;30.00;27.25;;;;;10.14;63.75;103607.06;5000401;28;45344;-83
2023/12/16 09:32:50;;;;;;;;;33.50;31.00;;;;;10.25;64.39;103613.25;5005300;27;45506;-83
2023/12/16 09:35:15;;;;;;;;;38.50;27.25;;;;;10.35;63.80;103617.63;5002735;27;46045;-85
2023/12/16 09:37:41;;;;;;;;;37.50;31.50;;;;;10.39;63.23;103618.47;5005404;28;45497;-86
2023/12/16 09:40:07;;;;;;;;;31.25;31.25;;;;;10.41;64.20;103622.00;4986033;27;46306;-83
2023/12/16 09:42:38;;;;;;;;;31.25;28.75;;;;;10.33;63.64;103612.31;4993931;28;45507;-83
2023/12/16 09:45:04;;;;;;;;;40.00;34.25;;;;;10.40;63.91;103610.47;4977708;28;46362;-83
2023/12/16 09:47:30;;;;;;;;;36.00;31.25;;;;;10.41;63.09;103609.56;5000149;28;45419;-82
2023/12/16 09:50:00;;;;;;;;;41.75;34.00;;;;;10.60;63.53;103632.50;4988027;28;45440;-84
2023/12/16 09:52:26;;;;;;;;;35.50;30.75;;;;;10.75;63.32;103619.97;5031713;27;45354;-83
2023/12/16 09:54:52;;;;;;;;;32.50;32.50;;;;;10.92;62.81;103634.00;5026577;27;45518;-86
2023/12/16 09:57:20;;;;;;;;;26.50;26.50;;;;;10.96;62.41;103616.25;5005125;27;45412;-86
2023/12/16 09:59:46;;;;;;;;;40.25;29.50;;;;;11.03;61.74;103613.47;4977029;28;46076;-84
2023/12/16 10:02:23;;;;;;;;;29.75;29.75;;;;;11.26;61.33;103631.03;4989436;28;45396;-83
2023/12/16 10:04:51;;;;;;;;;39.50;36.75;;;;;11.36;60.65;103638.03;5000367;28;46629;-83
2023/12/16 10:07:16;;;;;;;;;34.25;28.50;;;;;11.40;60.42;103623.75;4992972;27;45388;-85
2023/12/16 10:09:42;;;;;;;;;23.75;18.25;;;;;11.55;58.38;103630.69;5022819;27;45683;-81
2023/12/16 10:12:09;;;;;;;;;26.50;25.25;;;;;11.66;59.27;103624.31;5009410;27;45482;-85
2023/12/16 10:14:48;;;;;;;;;25.50;22.75;;;;;11.82;57.77;103617.94;5005251;27;45551;-82
2023/12/16 10:17:18;;;;;;;;;29.25;27.50;;;;;11.87;56.72;103609.88;5005843;28;45180;-82
2023/12/16 10:19:45;;;;;;;;;27.50;21.25;;;;;12.13;57.64;103628.19;5008050;28;45515;-83
2023/12/16 10:22:14;;;;;;;;;10.75;10.75;;;;;12.21;54.51;103615.59;5085569;27;45450;-84
2023/12/16 10:24:42;;;;;;;;;10.25;10.00;;;;;12.37;52.85;103617.16;4995758;28;45433;-85
2023/12/16 10:27:08;;;;;;;;;13.33;12.67;;;;;12.48;53.10;103613.41;5055636;27;45544;-85
2023/12/16 10:29:34;;;;;;;;;8.00;8.00;;;;;12.65;53.23;103622.06;5098510;27;45460;-84
2023/12/16 10:31:59;;;;;;;;;7.00;7.00;;;;;12.70;50.88;103615.72;5017464;27;45705;-82
2023/12/16 10:34:29;;;;;;;;;11.33;9.67;;;;;12.87;51.00;103618.09;5074176;27;46069;-83
2023/12/16 10:37:08;;;;;;;;;9.00;9.00;;;;;13.09;50.79;103612.38;4992756;28;45307;-83
2023/12/16 10:39:35;;;;;;;;;10.00;10.00;;;;;13.19;50.31;103592.63;5069829;27;45527;-85
2023/12/16 10:42:00;;;;;;;;;11.00;9.33;;;;;13.39;49.49;103611.81;5021429;27;45497;-85
2023/12/16 10:44:26;;;;;;;;;8.33;6.33;;;;;13.63;49.70;103609.56;5079473;27;46034;-83
2023/12/16 10:46:54;;;;;;;;;7.33;5.33;;;;;13.74;49.98;103602.19;5010146;27;45435;-84
2023/12/16 10:49:28;;;;;;;;;13.33;10.67;;;;;13.85;48.20;103593.03;4990011;28;45468;-84
2023/12/16 10:52:02;;;;;;;;;10.67;6.00;;;;;14.03;47.86;103590.84;5008872;27;45461;-84
2023/12/16 10:54:35;;;;;;;;;9.00;8.00;;;;;14.14;46.48;103588.78;5036702;27;45622;-85
2023/12/16 10:57:17;;;;;;;;;11.67;10.67;;;;;14.36;48.17;103591.84;5000549;28;45447;-85
2023/12/16 10:59:51;;;;;;;;;7.00;6.00;;;;;14.52;46.64;103569.16;5001418;28;45468;-82
2023/12/16 11:02:26;;;;;;;;;9.67;6.33;;;;;14.81;45.71;103579.13;5008177;28;45498;-82
2023/12/16 11:05:00;;;;;;;;;12.00;10.67;;;;;15.03;45.61;103571.38;4991953;28;47911;-83
2023/12/16 11:07:28;;;;;;;;;7.00;5.67;;;;;15.29;45.44;103565.28;5001372;28;45309;-85
2023/12/16 11:09:54;;;;;;;;;13.00;10.33;;;;;15.58;45.91;103573.38;5015053;27;45381;-83
2023/12/16 11:12:20;;;;;;;;;10.33;7.33;;;;;15.76;44.29;103571.09;5008016;28;47014;-83